sensor_id;sensor_type;location;lat;lon;timestamp;temperature;humidity
2623;DHT22;1321;48.690;9.022;2023-12-20T00:02:15;7.30;1.00
2623;DHT22;1321;48.690;9.022;2023-12-20T00:04:44;7.30;1.00
2623;DHT22;1321;48.690;9.022;2023-12-20T00:07:13;7.30;1.00
2623;DHT22;1321;48.690;9.022;2023-12-20T00:09:41;7.30;1.00
2623;DHT22;1321;48.690;9.022;2023-12-20T00:12:10;7.30;1.00
2623;DHT22;1321;48.690;9.022;2023-12-20T00:14:38;7.30;1.00
2623;DHT22;1321;48.690;9.022;2023-12-20T00:17:06;7.40;1.00
2623;DHT22;1321;48.690;9.022;2023-12-20T00:19:34;7.40;1.00
2623;DHT22;1321;48.690;9.022;2023-12-20T00:22:04;7.40;1.00
2623;DHT22;1321;48.690;9.022;2023-12-20T00:24:32;7.40;1.00
2623;DHT22;1321;48.690;9.022;2023-12-20T00:27:01;7.40;22.80
2623;DHT22;1321;48.690;9.022;2023-12-20T00:29:29;7.40;40.20
2623;DHT22;1321;48.690;9.022;2023-12-20T00:31:58;7.40;99.90
2623;DHT22;1321;48.690;9.022;2023-12-20T00:34:26;7.30;94.00
2623;DHT22;1321;48.690;9.022;2023-12-20T00:36:54;7.30;99.90
2623;DHT22;1321;48.690;9.022;2023-12-20T00:39:24;7.40;99.90
2623;DHT22;1321;48.690;9.022;2023-12-20T00:41:52;7.40;99.90
2623;DHT22;1321;48.690;9.022;2023-12-20T00:44:20;7.40;1.00
2623;DHT22;1321;48.690;9.022;2023-12-20T00:46:48;7.40;1.00
2623;DHT22;1321;48.690;9.022;2023-12-20T00:49:17;7.30;99.90
2623;DHT22;1321;48.690;9.022;2023-12-20T00:51:46;7.30;17.50
2623;DHT22;1321;48.690;9.022;2023-12-20T00:54:17;7.30;1.00
2623;DHT22;1321;48.690;9.022;2023-12-20T00:56:47;7.30;99.90
2623;DHT22;1321;48.690;9.022;2023-12-20T00:59:16;7.30;99.90
2623;DHT22;1321;48.690;9.022;2023-12-20T01:01:44;7.30;99.90
2623;DHT22;1321;48.690;9.022;2023-12-20T01:04:12;7.30;1.00
2623;DHT22;1321;48.690;9.022;2023-12-20T01:06:41;7.30;1.00
2623;DHT22;1321;48.690;9.022;2023-12-20T01:09:09;7.30;1.00
2623;DHT22;1321;48.690;9.022;2023-12-20T01:11:37;7.30;1.00
2623;DHT22;1321;48.690;9.022;2023-12-20T01:14:07;7.20;1.00
2623;DHT22;1321;48.690;9.022;2023-12-20T01:16:35;7.30;99.90
2623;DHT22;1321;48.690;9.022;2023-12-20T01:19:03;7.20;99.90
2623;DHT22;1321;48.690;9.022;2023-12-20T01:21:31;7.20;1.00
2623;DHT22;1321;48.690;9.022;2023-12-20T01:23:59;7.20;1.00
2623;DHT22;1321;48.690;9.022;2023-12-20T01:26:28;7.10;1.00
2623;DHT22;1321;48.690;9.022;2023-12-20T01:28:56;7.20;1.00
2623;DHT22;1321;48.690;9.022;2023-12-20T01:31:26;7.20;1.00
2623;DHT22;1321;48.690;9.022;2023-12-20T01:33:55;7.20;1.00
2623;DHT22;1321;48.690;9.022;2023-12-20T01:36:23;7.20;99.90
2623;DHT22;1321;48.690;9.022;2023-12-20T01:38:51;7.30;99.90
2623;DHT22;1321;48.690;9.022;2023-12-20T01:41:19;7.20;99.90
2623;DHT22;1321;48.690;9.022;2023-12-20T01:43:48;7.20;1.00
2623;DHT22;1321;48.690;9.022;2023-12-20T01:46:18;7.30;1.00
2623;DHT22;1321;48.690;9.022;2023-12-20T01:48:49;7.30;1.00
2623;DHT22;1321;48.690;9.022;2023-12-20T01:51:17;7.30;99.90
2623;DHT22;1321;48.690;9.022;2023-12-20T01:53:46;7.30;80.90
2623;DHT22;1321;48.690;9.022;2023-12-20T01:56:15;7.40;71.90
2623;DHT22;1321;48.690;9.022;2023-12-20T01:58:45;7.30;1.00
2623;DHT22;1321;48.690;9.022;2023-12-20T02:01:14;7.40;91.30
2623;DHT22;1321;48.690;9.022;2023-12-20T02:03:43;7.40;1.00
2623;DHT22;1321;48.690;9.022;2023-12-20T02:06:13;7.40;1.00
2623;DHT22;1321;48.690;9.022;2023-12-20T02:08:41;7.40;1.00
2623;DHT22;1321;48.690;9.022;2023-12-20T02:11:10;7.40;99.90
2623;DHT22;1321;48.690;9.022;2023-12-20T02:13:38;7.50;99.90
2623;DHT22;1321;48.690;9.022;2023-12-20T02:16:07;7.40;99.90
2623;DHT22;1321;48.690;9.022;2023-12-20T02:18:35;7.40;99.90
2623;DHT22;1321;48.690;9.022;2023-12-20T02:21:04;7.40;99.90
2623;DHT22;1321;48.690;9.022;2023-12-20T02:23:34;7.40;1.00
2623;DHT22;1321;48.690;9.022;2023-12-20T02:26:03;7.40;99.90
2623;DHT22;1321;48.690;9.022;2023-12-20T02:28:33;7.50;99.90
2623;DHT22;1321;48.690;9.022;2023-12-20T02:31:02;7.50;99.90
2623;DHT22;1321;48.690;9.022;2023-12-20T02:33:31;7.40;99.90
2623;DHT22;1321;48.690;9.022;2023-12-20T02:35:59;7.50;99.90
2623;DHT22;1321;48.690;9.022;2023-12-20T02:38:27;7.40;99.90
2623;DHT22;1321;48.690;9.022;2023-12-20T02:40:56;7.40;99.90
2623;DHT22;1321;48.690;9.022;2023-12-20T02:43:25;7.30;1.00
2623;DHT22;1321;48.690;9.022;2023-12-20T02:45:53;7.30;1.00
2623;DHT22;1321;48.690;9.022;2023-12-20T02:48:22;7.30;99.90
2623;DHT22;1321;48.690;9.022;2023-12-20T02:50:50;7.40;99.90
2623;DHT22;1321;48.690;9.022;2023-12-20T02:53:19;7.30;99.90
2623;DHT22;1321;48.690;9.022;2023-12-20T02:55:48;7.40;62.00
2623;DHT22;1321;48.690;9.022;2023-12-20T02:58:17;7.30;99.90
2623;DHT22;1321;48.690;9.022;2023-12-20T03:00:46;7.40;99.90
2623;DHT22;1321;48.690;9.022;2023-12-20T03:03:14;7.40;14.40
2623;DHT22;1321;48.690;9.022;2023-12-20T03:05:42;7.50;1.00
2623;DHT22;1321;48.690;9.022;2023-12-20T03:08:10;7.40;12.90
2623;DHT22;1321;48.690;9.022;2023-12-20T03:10:39;7.50;1.00
2623;DHT22;1321;48.690;9.022;2023-12-20T03:13:07;7.40;99.90
2623;DHT22;1321;48.690;9.022;2023-12-20T03:15:36;7.40;99.90
2623;DHT22;1321;48.690;9.022;2023-12-20T03:18:05;7.40;99.90
2623;DHT22;1321;48.690;9.022;2023-12-20T03:20:33;7.40;99.90
2623;DHT22;1321;48.690;9.022;2023-12-20T03:23:01;7.40;99.90
2623;DHT22;1321;48.690;9.022;2023-12-20T03:25:29;7.40;99.90
2623;DHT22;1321;48.690;9.022;2023-12-20T03:27:58;7.40;99.90
2623;DHT22;1321;48.690;9.022;2023-12-20T03:30:26;7.40;99.90
2623;DHT22;1321;48.690;9.022;2023-12-20T03:32:55;7.40;99.90
2623;DHT22;1321;48.690;9.022;2023-12-20T03:35:24;7.40;1.00
2623;DHT22;1321;48.690;9.022;2023-12-20T03:37:52;7.30;1.00
2623;DHT22;1321;48.690;9.022;2023-12-20T03:40:20;7.40;1.00
2623;DHT22;1321;48.690;9.022;2023-12-20T03:42:49;7.30;1.00
2623;DHT22;1321;48.690;9.022;2023-12-20T03:45:18;7.30;99.90
2623;DHT22;1321;48.690;9.022;2023-12-20T03:47:46;7.40;1.00
2623;DHT22;1321;48.690;9.022;2023-12-20T03:50:16;7.40;98.80
2623;DHT22;1321;48.690;9.022;2023-12-20T03:52:45;7.40;90.40
2623;DHT22;1321;48.690;9.022;2023-12-20T03:55:13;7.40;1.00
2623;DHT22;1321;48.690;9.022;2023-12-20T03:57:41;7.40;1.00
2623;DHT22;1321;48.690;9.022;2023-12-20T04:00:11;7.30;1.00
2623;DHT22;1321;48.690;9.022;2023-12-20T04:02:40;7.30;99.90
2623;DHT22;1321;48.690;9.022;2023-12-20T04:05:09;7.30;99.90
2623;DHT22;1321;48.690;9.022;2023-12-20T04:07:38;7.30;99.90
2623;DHT22;1321;48.690;9.022;2023-12-20T04:10:08;7.40;99.90
2623;DHT22;1321;48.690;9.022;2023-12-20T04:12:36;7.30;1.00
2623;DHT22;1321;48.690;9.022;2023-12-20T04:15:05;7.30;99.90
2623;DHT22;1321;48.690;9.022;2023-12-20T04:17:36;7.40;99.90
2623;DHT22;1321;48.690;9.022;2023-12-20T04:20:06;7.40;99.90
2623;DHT22;1321;48.690;9.022;2023-12-20T04:22:34;7.30;99.90
2623;DHT22;1321;48.690;9.022;2023-12-20T04:25:04;7.40;1.00
2623;DHT22;1321;48.690;9.022;2023-12-20T04:27:33;7.30;99.90
2623;DHT22;1321;48.690;9.022;2023-12-20T04:30:01;7.40;99.90
2623;DHT22;1321;48.690;9.022;2023-12-20T04:32:29;7.30;1.00
2623;DHT22;1321;48.690;9.022;2023-12-20T04:34:58;7.30;1.00
2623;DHT22;1321;48.690;9.022;2023-12-20T04:37:26;7.30;99.90
2623;DHT22;1321;48.690;9.022;2023-12-20T04:39:55;7.30;99.60
2623;DHT22;1321;48.690;9.022;2023-12-20T04:42:24;7.30;99.90
2623;DHT22;1321;48.690;9.022;2023-12-20T04:44:53;7.30;1.00
2623;DHT22;1321;48.690;9.022;2023-12-20T04:47:21;7.30;1.00
2623;DHT22;1321;48.690;9.022;2023-12-20T04:49:49;7.20;36.70
2623;DHT22;1321;48.690;9.022;2023-12-20T04:52:17;7.20;1.00
2623;DHT22;1321;48.690;9.022;2023-12-20T04:54:46;7.20;1.00
2623;DHT22;1321;48.690;9.022;2023-12-20T04:57:14;7.20;1.00
2623;DHT22;1321;48.690;9.022;2023-12-20T04:59:44;7.20;1.00
2623;DHT22;1321;48.690;9.022;2023-12-20T05:02:12;7.20;1.00
2623;DHT22;1321;48.690;9.022;2023-12-20T05:04:40;7.30;99.90
2623;DHT22;1321;48.690;9.022;2023-12-20T05:07:09;7.20;99.90
2623;DHT22;1321;48.690;9.022;2023-12-20T05:09:37;7.20;1.00
2623;DHT22;1321;48.690;9.022;2023-12-20T05:12:06;7.20;1.00
2623;DHT22;1321;48.690;9.022;2023-12-20T05:14:35;7.20;99.90
2623;DHT22;1321;48.690;9.022;2023-12-20T05:17:04;7.20;99.90
2623;DHT22;1321;48.690;9.022;2023-12-20T05:19:33;7.20;99.90
2623;DHT22;1321;48.690;9.022;2023-12-20T05:22:03;7.10;99.90
2623;DHT22;1321;48.690;9.022;2023-12-20T05:24:31;7.10;99.90
2623;DHT22;1321;48.690;9.022;2023-12-20T05:26:59;7.10;1.00
2623;DHT22;1321;48.690;9.022;2023-12-20T05:29:27;7.10;99.90
2623;DHT22;1321;48.690;9.022;2023-12-20T05:31:57;7.10;1.00
2623;DHT22;1321;48.690;9.022;2023-12-20T05:34:27;7.20;99.90
2623;DHT22;1321;48.690;9.022;2023-12-20T05:36:55;7.20;1.00
2623;DHT22;1321;48.690;9.022;2023-12-20T05:39:24;7.20;1.00
2623;DHT22;1321;48.690;9.022;2023-12-20T05:41:52;7.20;1.00
2623;DHT22;1321;48.690;9.022;2023-12-20T05:44:20;7.20;1.00
2623;DHT22;1321;48.690;9.022;2023-12-20T05:46:48;7.20;99.90
2623;DHT22;1321;48.690;9.022;2023-12-20T05:49:17;7.20;1.00
2623;DHT22;1321;48.690;9.022;2023-12-20T05:51:46;7.20;1.00
2623;DHT22;1321;48.690;9.022;2023-12-20T05:54:14;7.20;99.90
2623;DHT22;1321;48.690;9.022;2023-12-20T05:56:43;7.10;99.90
2623;DHT22;1321;48.690;9.022;2023-12-20T05:59:11;7.20;99.90
2623;DHT22;1321;48.690;9.022;2023-12-20T06:01:39;7.20;78.80
2623;DHT22;1321;48.690;9.022;2023-12-20T06:04:07;7.10;99.90
2623;DHT22;1321;48.690;9.022;2023-12-20T06:06:40;7.20;20.30
2623;DHT22;1321;48.690;9.022;2023-12-20T06:09:11;7.20;99.90
2623;DHT22;1321;48.690;9.022;2023-12-20T06:11:39;7.10;1.00
2623;DHT22;1321;48.690;9.022;2023-12-20T06:14:07;7.10;16.80
2623;DHT22;1321;48.690;9.022;2023-12-20T06:16:35;7.10;99.90
2623;DHT22;1321;48.690;9.022;2023-12-20T06:19:04;7.10;1.00
2623;DHT22;1321;48.690;9.022;2023-12-20T06:21:32;7.10;1.00
2623;DHT22;1321;48.690;9.022;2023-12-20T06:24:00;7.10;1.00
2623;DHT22;1321;48.690;9.022;2023-12-20T06:26:30;7.10;1.00
2623;DHT22;1321;48.690;9.022;2023-12-20T06:28:58;7.10;1.00
2623;DHT22;1321;48.690;9.022;2023-12-20T06:31:26;7.10;99.90
2623;DHT22;1321;48.690;9.022;2023-12-20T06:33:54;7.10;1.00
2623;DHT22;1321;48.690;9.022;2023-12-20T06:36:25;7.10;1.00
2623;DHT22;1321;48.690;9.022;2023-12-20T06:38:53;7.10;99.90
2623;DHT22;1321;48.690;9.022;2023-12-20T06:41:21;7.10;99.90
2623;DHT22;1321;48.690;9.022;2023-12-20T06:43:52;7.10;1.00
2623;DHT22;1321;48.690;9.022;2023-12-20T06:46:21;7.10;1.00
2623;DHT22;1321;48.690;9.022;2023-12-20T06:48:49;7.20;1.00
2623;DHT22;1321;48.690;9.022;2023-12-20T06:51:17;7.10;99.90
2623;DHT22;1321;48.690;9.022;2023-12-20T06:53:47;7.20;99.90
2623;DHT22;1321;48.690;9.022;2023-12-20T06:56:15;7.20;99.90
2623;DHT22;1321;48.690;9.022;2023-12-20T06:58:45;7.20;99.90
2623;DHT22;1321;48.690;9.022;2023-12-20T07:01:15;7.20;89.90
2623;DHT22;1321;48.690;9.022;2023-12-20T07:03:44;7.20;99.90
2623;DHT22;1321;48.690;9.022;2023-12-20T07:06:12;7.20;99.90
2623;DHT22;1321;48.690;9.022;2023-12-20T07:08:44;7.20;99.90
2623;DHT22;1321;48.690;9.022;2023-12-20T07:11:12;7.20;99.90
2623;DHT22;1321;48.690;9.022;2023-12-20T07:13:40;7.20;1.00
2623;DHT22;1321;48.690;9.022;2023-12-20T07:16:08;7.30;1.00
2623;DHT22;1321;48.690;9.022;2023-12-20T07:18:38;7.20;99.90
2623;DHT22;1321;48.690;9.022;2023-12-20T07:21:07;7.20;1.00
2623;DHT22;1321;48.690;9.022;2023-12-20T07:23:36;7.20;99.90
2623;DHT22;1321;48.690;9.022;2023-12-20T07:26:04;7.20;99.90
2623;DHT22;1321;48.690;9.022;2023-12-20T07:28:32;7.30;99.90
2623;DHT22;1321;48.690;9.022;2023-12-20T07:31:00;7.30;1.00
2623;DHT22;1321;48.690;9.022;2023-12-20T07:33:29;7.30;1.00
2623;DHT22;1321;48.690;9.022;2023-12-20T07:36:07;7.30;1.00
2623;DHT22;1321;48.690;9.022;2023-12-20T07:38:35;7.30;34.40
2623;DHT22;1321;48.690;9.022;2023-12-20T07:41:04;7.30;99.90
2623;DHT22;1321;48.690;9.022;2023-12-20T07:43:32;7.30;99.90
2623;DHT22;1321;48.690;9.022;2023-12-20T07:46:04;7.30;99.90
2623;DHT22;1321;48.690;9.022;2023-12-20T07:48:34;7.40;1.00
2623;DHT22;1321;48.690;9.022;2023-12-20T07:51:03;7.30;1.00
2623;DHT22;1321;48.690;9.022;2023-12-20T07:53:34;7.40;99.90
2623;DHT22;1321;48.690;9.022;2023-12-20T07:56:12;7.30;99.90
2623;DHT22;1321;48.690;9.022;2023-12-20T07:58:41;7.30;99.90
2623;DHT22;1321;48.690;9.022;2023-12-20T08:01:19;7.30;99.90
2623;DHT22;1321;48.690;9.022;2023-12-20T08:03:50;7.30;1.00
2623;DHT22;1321;48.690;9.022;2023-12-20T08:06:19;7.30;1.00
2623;DHT22;1321;48.690;9.022;2023-12-20T08:08:49;7.20;1.00
2623;DHT22;1321;48.690;9.022;2023-12-20T08:11:28;7.20;99.90
2623;DHT22;1321;48.690;9.022;2023-12-20T08:13:56;7.30;99.90
2623;DHT22;1321;48.690;9.022;2023-12-20T08:16:25;7.20;1.00
2623;DHT22;1321;48.690;9.022;2023-12-20T08:18:53;7.20;99.90
2623;DHT22;1321;48.690;9.022;2023-12-20T08:21:22;7.20;99.90
2623;DHT22;1321;48.690;9.022;2023-12-20T08:23:51;7.20;99.90
2623;DHT22;1321;48.690;9.022;2023-12-20T08:26:20;7.30;1.00
2623;DHT22;1321;48.690;9.022;2023-12-20T08:28:49;7.20;1.00
2623;DHT22;1321;48.690;9.022;2023-12-20T08:31:18;7.20;1.00
2623;DHT22;1321;48.690;9.022;2023-12-20T08:33:47;7.20;99.90
2623;DHT22;1321;48.690;9.022;2023-12-20T08:36:16;7.20;1.00
2623;DHT22;1321;48.690;9.022;2023-12-20T08:38:45;7.20;99.90
2623;DHT22;1321;48.690;9.022;2023-12-20T08:41:16;7.30;99.90
2623;DHT22;1321;48.690;9.022;2023-12-20T08:43:45;7.20;1.00
2623;DHT22;1321;48.690;9.022;2023-12-20T08:46:15;7.30;1.00
2623;DHT22;1321;48.690;9.022;2023-12-20T08:48:43;7.20;1.00
2623;DHT22;1321;48.690;9.022;2023-12-20T08:51:13;7.20;1.00
2623;DHT22;1321;48.690;9.022;2023-12-20T08:53:41;7.20;99.90
2623;DHT22;1321;48.690;9.022;2023-12-20T08:56:12;7.20;99.90
2623;DHT22;1321;48.690;9.022;2023-12-20T08:58:41;7.20;1.00
2623;DHT22;1321;48.690;9.022;2023-12-20T09:01:09;7.20;1.00
2623;DHT22;1321;48.690;9.022;2023-12-20T09:03:37;7.20;99.90
2623;DHT22;1321;48.690;9.022;2023-12-20T09:06:06;7.20;1.00
2623;DHT22;1321;48.690;9.022;2023-12-20T09:08:34;7.10;1.00
2623;DHT22;1321;48.690;9.022;2023-12-20T09:11:03;7.10;99.90
2623;DHT22;1321;48.690;9.022;2023-12-20T09:13:31;7.10;99.90
2623;DHT22;1321;48.690;9.022;2023-12-20T09:16:02;7.20;99.90
2623;DHT22;1321;48.690;9.022;2023-12-20T09:18:30;7.10;99.90
2623;DHT22;1321;48.690;9.022;2023-12-20T09:20:59;7.10;99.90
2623;DHT22;1321;48.690;9.022;2023-12-20T09:23:27;7.20;99.90
2623;DHT22;1321;48.690;9.022;2023-12-20T09:25:55;7.20;99.90
2623;DHT22;1321;48.690;9.022;2023-12-20T09:28:24;7.30;99.90
2623;DHT22;1321;48.690;9.022;2023-12-20T09:30:52;7.40;99.90
2623;DHT22;1321;48.690;9.022;2023-12-20T09:33:22;7.60;99.90
2623;DHT22;1321;48.690;9.022;2023-12-20T09:35:51;7.70;99.90
2623;DHT22;1321;48.690;9.022;2023-12-20T09:38:20;8.00;36.80
2623;DHT22;1321;48.690;9.022;2023-12-20T09:40:49;8.20;1.00
2623;DHT22;1321;48.690;9.022;2023-12-20T09:43:20;8.50;1.00
2623;DHT22;1321;48.690;9.022;2023-12-20T09:45:48;8.60;1.00
2623;DHT22;1321;48.690;9.022;2023-12-20T09:48:19;8.70;1.00
2623;DHT22;1321;48.690;9.022;2023-12-20T09:50:49;8.80;1.00
2623;DHT22;1321;48.690;9.022;2023-12-20T09:53:20;8.80;1.00
2623;DHT22;1321;48.690;9.022;2023-12-20T09:55:52;8.80;1.00
2623;DHT22;1321;48.690;9.022;2023-12-20T09:58:21;8.70;99.90
2623;DHT22;1321;48.690;9.022;2023-12-20T10:00:49;9.00;99.90
2623;DHT22;1321;48.690;9.022;2023-12-20T10:03:21;9.30;99.90
2623;DHT22;1321;48.690;9.022;2023-12-20T10:05:55;9.80;99.90
2623;DHT22;1321;48.690;9.022;2023-12-20T10:08:24;10.40;99.90
2623;DHT22;1321;48.690;9.022;2023-12-20T10:10:53;10.90;99.90
2623;DHT22;1321;48.690;9.022;2023-12-20T10:13:22;10.70;99.90
2623;DHT22;1321;48.690;9.022;2023-12-20T10:15:50;10.40;99.90
2623;DHT22;1321;48.690;9.022;2023-12-20T10:18:19;10.00;99.90
2623;DHT22;1321;48.690;9.022;2023-12-20T10:20:48;9.70;99.90
2623;DHT22;1321;48.690;9.022;2023-12-20T10:23:18;9.40;99.90
2623;DHT22;1321;48.690;9.022;2023-12-20T10:25:56;9.20;99.90
2623;DHT22;1321;48.690;9.022;2023-12-20T10:28:25;9.00;99.90
2623;DHT22;1321;48.690;9.022;2023-12-20T10:30:55;8.80;99.90
2623;DHT22;1321;48.690;9.022;2023-12-20T10:33:25;8.70;99.90
2623;DHT22;1321;48.690;9.022;2023-12-20T10:35:55;8.50;99.90
2623;DHT22;1321;48.690;9.022;2023-12-20T10:38:24;8.30;99.90
2623;DHT22;1321;48.690;9.022;2023-12-20T10:40:56;8.20;99.90
2623;DHT22;1321;48.690;9.022;2023-12-20T10:43:26;8.30;99.90
2623;DHT22;1321;48.690;9.022;2023-12-20T10:45:56;8.20;99.90
2623;DHT22;1321;48.690;9.022;2023-12-20T10:48:25;8.20;99.90
2623;DHT22;1321;48.690;9.022;2023-12-20T10:50:58;8.20;99.90
2623;DHT22;1321;48.690;9.022;2023-12-20T10:53:27;8.20;99.90
2623;DHT22;1321;48.690;9.022;2023-12-20T10:55:56;8.10;99.90
2623;DHT22;1321;48.690;9.022;2023-12-20T10:58:30;8.10;99.90
2623;DHT22;1321;48.690;9.022;2023-12-20T11:01:01;8.10;99.90
2623;DHT22;1321;48.690;9.022;2023-12-20T11:03:34;8.10;99.90
2623;DHT22;1321;48.690;9.022;2023-12-20T11:06:07;8.10;99.90
2623;DHT22;1321;48.690;9.022;2023-12-20T11:08:42;8.00;99.90
2623;DHT22;1321;48.690;9.022;2023-12-20T11:11:15;8.10;99.90
2623;DHT22;1321;48.690;9.022;2023-12-20T11:13:55;8.20;99.90
2623;DHT22;1321;48.690;9.022;2023-12-20T11:16:26;8.20;99.90
2623;DHT22;1321;48.690;9.022;2023-12-20T11:19:07;8.10;99.90
2623;DHT22;1321;48.690;9.022;2023-12-20T11:21:36;8.10;99.90
2623;DHT22;1321;48.690;9.022;2023-12-20T11:24:06;8.00;99.90
2623;DHT22;1321;48.690;9.022;2023-12-20T11:26:34;8.30;99.90
2623;DHT22;1321;48.690;9.022;2023-12-20T11:29:30;8.50;99.90
2623;DHT22;1321;48.690;9.022;2023-12-20T11:32:00;8.50;99.90
2623;DHT22;1321;48.690;9.022;2023-12-20T11:34:31;8.30;99.90
2623;DHT22;1321;48.690;9.022;2023-12-20T11:37:00;8.30;99.90
2623;DHT22;1321;48.690;9.022;2023-12-20T11:39:32;8.20;99.90
2623;DHT22;1321;48.690;9.022;2023-12-20T11:42:04;8.20;99.90
2623;DHT22;1321;48.690;9.022;2023-12-20T11:44:33;8.10;99.90
2623;DHT22;1321;48.690;9.022;2023-12-20T11:47:01;8.10;99.90
2623;DHT22;1321;48.690;9.022;2023-12-20T11:49:29;8.10;99.90
2623;DHT22;1321;48.690;9.022;2023-12-20T11:51:58;8.00;99.90
2623;DHT22;1321;48.690;9.022;2023-12-20T11:54:27;8.00;99.90
2623;DHT22;1321;48.690;9.022;2023-12-20T11:56:57;8.00;99.90
2623;DHT22;1321;48.690;9.022;2023-12-20T11:59:25;8.00;99.90
2623;DHT22;1321;48.690;9.022;2023-12-20T12:01:53;8.00;99.90
2623;DHT22;1321;48.690;9.022;2023-12-20T12:04:23;7.90;99.90
2623;DHT22;1321;48.690;9.022;2023-12-20T12:06:51;7.90;99.90
2623;DHT22;1321;48.690;9.022;2023-12-20T12:09:21;7.90;99.90
2623;DHT22;1321;48.690;9.022;2023-12-20T12:11:49;7.90;99.90
2623;DHT22;1321;48.690;9.022;2023-12-20T12:14:19;7.90;99.90
2623;DHT22;1321;48.690;9.022;2023-12-20T12:16:48;7.90;99.90
2623;DHT22;1321;48.690;9.022;2023-12-20T12:19:20;7.90;99.90
2623;DHT22;1321;48.690;9.022;2023-12-20T12:21:49;7.90;99.90
2623;DHT22;1321;48.690;9.022;2023-12-20T12:24:20;7.90;99.90
2623;DHT22;1321;48.690;9.022;2023-12-20T12:26:51;7.90;99.90
2623;DHT22;1321;48.690;9.022;2023-12-20T12:29:21;7.90;99.90
2623;DHT22;1321;48.690;9.022;2023-12-20T12:31:49;8.00;99.90
2623;DHT22;1321;48.690;9.022;2023-12-20T12:34:18;8.00;99.90
2623;DHT22;1321;48.690;9.022;2023-12-20T12:36:46;7.90;99.90
2623;DHT22;1321;48.690;9.022;2023-12-20T12:39:15;7.80;99.90
2623;DHT22;1321;48.690;9.022;2023-12-20T12:41:45;7.90;99.90
2623;DHT22;1321;48.690;9.022;2023-12-20T12:44:13;7.90;99.90
2623;DHT22;1321;48.690;9.022;2023-12-20T12:46:46;7.90;99.90
2623;DHT22;1321;48.690;9.022;2023-12-20T12:49:16;7.90;99.90
2623;DHT22;1321;48.690;9.022;2023-12-20T12:51:45;7.90;99.90
2623;DHT22;1321;48.690;9.022;2023-12-20T12:54:13;8.00;99.90
2623;DHT22;1321;48.690;9.022;2023-12-20T12:56:43;8.00;99.90
2623;DHT22;1321;48.690;9.022;2023-12-20T12:59:11;8.00;99.90
2623;DHT22;1321;48.690;9.022;2023-12-20T13:01:40;7.90;99.90
2623;DHT22;1321;48.690;9.022;2023-12-20T13:04:09;7.90;99.90
2623;DHT22;1321;48.690;9.022;2023-12-20T13:06:39;7.90;99.90
2623;DHT22;1321;48.690;9.022;2023-12-20T13:09:09;8.00;99.90
2623;DHT22;1321;48.690;9.022;2023-12-20T13:11:37;7.90;99.90
2623;DHT22;1321;48.690;9.022;2023-12-20T13:14:05;7.90;99.90
2623;DHT22;1321;48.690;9.022;2023-12-20T13:16:37;7.90;99.90
2623;DHT22;1321;48.690;9.022;2023-12-20T13:19:06;7.90;99.90
2623;DHT22;1321;48.690;9.022;2023-12-20T13:21:35;7.90;99.90
2623;DHT22;1321;48.690;9.022;2023-12-20T13:24:04;7.90;99.90
2623;DHT22;1321;48.690;9.022;2023-12-20T13:26:33;8.00;99.90
2623;DHT22;1321;48.690;9.022;2023-12-20T13:29:01;8.10;99.90
2623;DHT22;1321;48.690;9.022;2023-12-20T13:31:29;8.20;99.90
2623;DHT22;1321;48.690;9.022;2023-12-20T13:33:58;8.20;99.90
2623;DHT22;1321;48.690;9.022;2023-12-20T13:36:27;8.20;99.90
2623;DHT22;1321;48.690;9.022;2023-12-20T13:38:57;8.20;99.90
2623;DHT22;1321;48.690;9.022;2023-12-20T13:41:26;8.20;99.90
2623;DHT22;1321;48.690;9.022;2023-12-20T13:43:54;8.20;99.90
2623;DHT22;1321;48.690;9.022;2023-12-20T13:46:22;8.30;99.90
2623;DHT22;1321;48.690;9.022;2023-12-20T13:48:51;8.20;99.90
2623;DHT22;1321;48.690;9.022;2023-12-20T13:51:19;8.20;99.90
2623;DHT22;1321;48.690;9.022;2023-12-20T13:53:48;8.10;99.90
2623;DHT22;1321;48.690;9.022;2023-12-20T13:56:17;8.10;99.90
2623;DHT22;1321;48.690;9.022;2023-12-20T13:58:47;8.10;99.90
2623;DHT22;1321;48.690;9.022;2023-12-20T14:01:15;8.10;99.90
2623;DHT22;1321;48.690;9.022;2023-12-20T14:03:44;8.10;99.90
2623;DHT22;1321;48.690;9.022;2023-12-20T14:06:12;8.00;99.90
2623;DHT22;1321;48.690;9.022;2023-12-20T14:08:42;8.00;99.90
2623;DHT22;1321;48.690;9.022;2023-12-20T14:11:10;8.00;99.90
2623;DHT22;1321;48.690;9.022;2023-12-20T14:13:40;7.90;99.90
2623;DHT22;1321;48.690;9.022;2023-12-20T14:16:10;7.90;99.90
2623;DHT22;1321;48.690;9.022;2023-12-20T14:18:39;7.90;99.90
2623;DHT22;1321;48.690;9.022;2023-12-20T14:21:08;7.90;99.90
2623;DHT22;1321;48.690;9.022;2023-12-20T14:23:37;7.80;99.90
2623;DHT22;1321;48.690;9.022;2023-12-20T14:26:05;7.80;99.90
2623;DHT22;1321;48.690;9.022;2023-12-20T14:28:33;7.80;99.90
2623;DHT22;1321;48.690;9.022;2023-12-20T14:31:03;7.80;99.90
2623;DHT22;1321;48.690;9.022;2023-12-20T14:33:32;7.80;99.90
2623;DHT22;1321;48.690;9.022;2023-12-20T14:36:00;7.80;99.90
2623;DHT22;1321;48.690;9.022;2023-12-20T14:38:32;7.60;99.90
2623;DHT22;1321;48.690;9.022;2023-12-20T14:41:00;7.60;99.90
2623;DHT22;1321;48.690;9.022;2023-12-20T14:43:30;7.60;99.90
2623;DHT22;1321;48.690;9.022;2023-12-20T14:45:58;7.50;99.90
2623;DHT22;1321;48.690;9.022;2023-12-20T14:48:28;7.50;99.90
2623;DHT22;1321;48.690;9.022;2023-12-20T14:50:56;7.50;99.90
2623;DHT22;1321;48.690;9.022;2023-12-20T14:53:26;7.40;99.90
2623;DHT22;1321;48.690;9.022;2023-12-20T14:55:55;7.50;99.90
2623;DHT22;1321;48.690;9.022;2023-12-20T14:58:23;7.40;99.90
2623;DHT22;1321;48.690;9.022;2023-12-20T15:00:51;7.40;99.90
2623;DHT22;1321;48.690;9.022;2023-12-20T15:03:19;7.40;99.90
2623;DHT22;1321;48.690;9.022;2023-12-20T15:05:49;7.40;99.90
2623;DHT22;1321;48.690;9.022;2023-12-20T15:08:17;7.30;99.90
2623;DHT22;1321;48.690;9.022;2023-12-20T15:10:45;7.30;99.90
2623;DHT22;1321;48.690;9.022;2023-12-20T15:13:13;7.40;99.90
2623;DHT22;1321;48.690;9.022;2023-12-20T15:15:42;7.30;99.90
2623;DHT22;1321;48.690;9.022;2023-12-20T15:18:13;7.30;99.90
2623;DHT22;1321;48.690;9.022;2023-12-20T15:20:41;7.20;99.90
2623;DHT22;1321;48.690;9.022;2023-12-20T15:23:13;7.20;99.90
2623;DHT22;1321;48.690;9.022;2023-12-20T15:25:41;7.30;99.90
2623;DHT22;1321;48.690;9.022;2023-12-20T15:28:09;7.30;99.90
2623;DHT22;1321;48.690;9.022;2023-12-20T15:30:38;7.20;1.00
2623;DHT22;1321;48.690;9.022;2023-12-20T15:33:06;7.10;1.00
2623;DHT22;1321;48.690;9.022;2023-12-20T15:35:34;7.10;1.00
2623;DHT22;1321;48.690;9.022;2023-12-20T15:38:03;7.00;1.00
2623;DHT22;1321;48.690;9.022;2023-12-20T15:40:33;7.00;1.00
2623;DHT22;1321;48.690;9.022;2023-12-20T15:43:01;7.00;1.00
2623;DHT22;1321;48.690;9.022;2023-12-20T15:45:29;7.00;1.00
2623;DHT22;1321;48.690;9.022;2023-12-20T15:47:58;7.00;1.00
2623;DHT22;1321;48.690;9.022;2023-12-20T15:50:26;6.90;1.00
2623;DHT22;1321;48.690;9.022;2023-12-20T15:52:54;6.90;1.00
2623;DHT22;1321;48.690;9.022;2023-12-20T15:55:23;6.80;1.00
2623;DHT22;1321;48.690;9.022;2023-12-20T15:57:52;6.80;1.00
2623;DHT22;1321;48.690;9.022;2023-12-20T16:00:21;7.00;1.00
2623;DHT22;1321;48.690;9.022;2023-12-20T16:02:50;6.90;1.00
2623;DHT22;1321;48.690;9.022;2023-12-20T16:05:19;6.90;1.00
2623;DHT22;1321;48.690;9.022;2023-12-20T16:07:48;6.90;1.00
2623;DHT22;1321;48.690;9.022;2023-12-20T16:10:16;6.80;1.00
2623;DHT22;1321;48.690;9.022;2023-12-20T16:12:45;6.80;1.00
2623;DHT22;1321;48.690;9.022;2023-12-20T16:15:15;6.90;1.00
2623;DHT22;1321;48.690;9.022;2023-12-20T16:17:44;6.90;1.00
2623;DHT22;1321;48.690;9.022;2023-12-20T16:20:13;6.90;1.00
2623;DHT22;1321;48.690;9.022;2023-12-20T16:22:41;6.80;1.00
2623;DHT22;1321;48.690;9.022;2023-12-20T16:25:10;6.90;1.00
2623;DHT22;1321;48.690;9.022;2023-12-20T16:27:38;6.90;1.00
2623;DHT22;1321;48.690;9.022;2023-12-20T16:30:07;6.80;1.00
2623;DHT22;1321;48.690;9.022;2023-12-20T16:32:37;6.70;1.00
2623;DHT22;1321;48.690;9.022;2023-12-20T16:35:05;6.70;1.00
2623;DHT22;1321;48.690;9.022;2023-12-20T16:37:34;6.80;1.00